Погода Сан-Луис-Гонзагана 2 недели

Риу-Гранди-ду-Сул, Бразилия

04 - 17 февраля
  • 04февраля
    Сегодня
    +20°
    +30°
    Практически безоблачно
    ВремяПогодаТемператураВлажностьДавлениеВетер, м/сВероятность осадков
    00:00Ясно и безоблачно+23°C90 %737 мм1.6 м/с3 %
    03:00Ясно и безоблачно+22°C90 %736 мм2.3 м/с5 %
    06:00Ясно и безоблачно+20°C90 %737 мм1.8 м/с5 %
    09:00Ясно и безоблачно+24°C76 %739 мм2.6 м/с3 %
    12:00Небольшая облачность и лёгкий дождик+27°C62 %739 мм3.3 м/с54 %
    15:00Практически безоблачно+30°C51 %738 мм3.8 м/с40 %
    18:00Ясно и безоблачно+28°C51 %738 мм4.7 м/с19 %
    21:00Ясно и безоблачно+26°C70 %738 мм1.6 м/с5 %
  • 05февраля
    Воскресенье
    +20°
    +33°
    Облачно с прояснениями
    ВремяПогодаТемператураВлажностьДавлениеВетер, м/сВероятность осадков
    00:00Ясно и безоблачно+25°C60 %740 мм4.0 м/с5 %
    03:00Небольшая облачность+22°C68 %739 мм1.9 м/с5 %
    06:00Практически безоблачно+20°C76 %739 мм1.7 м/с5 %
    09:00Практически безоблачно+26°C56 %740 мм1.7 м/с5 %
    12:00Небольшая облачность+31°C38 %740 мм2.7 м/с5 %
    15:00Облачно с прояснениями+32°C35 %739 мм2.7 м/с5 %
    18:00Облачно с прояснениями+31°C37 %737 мм2.0 м/с5 %
    21:00Ясно и безоблачно+27°C55 %737 мм1.8 м/с5 %
  • 06февраля
    Понедельник
    +22°
    +37°
    Ясно и безоблачно
    ВремяПогодаТемператураВлажностьДавлениеВетер, м/сВероятность осадков
    00:00Облачно с прояснениями+24°C59 %738 мм1.4 м/с5 %
    03:00Небольшая облачность+22°C73 %737 мм1.6 м/с5 %
    06:00Ясно и безоблачно+21°C76 %737 мм1.8 м/с5 %
    09:00Ясно и безоблачно+29°C53 %739 мм0.9 м/с5 %
    12:00Ясно и безоблачно+35°C32 %739 мм0.8 м/с5 %
    15:00Ясно и безоблачно+37°C27 %738 мм3.1 м/с5 %
    18:00Ясно и безоблачно+36°C29 %737 мм1.3 м/с5 %
    21:00Ясно и безоблачно+30°C39 %737 мм2.0 м/с5 %
  • 07февраля
    Вторник
    +22°
    +39°
    Ясно и безоблачно
    ВремяПогодаТемператураВлажностьДавлениеВетер, м/сВероятность осадков
    00:00Ясно и безоблачно+28°C42 %738 мм2.5 м/с5 %
    03:00Ясно и безоблачно+25°C56 %737 мм2.4 м/с5 %
    06:00Ясно и безоблачно+23°C64 %737 мм2.3 м/с5 %
    09:00Ясно и безоблачно+30°C50 %739 мм2.0 м/с5 %
    12:00Ясно и безоблачно+37°C31 %739 мм1.2 м/с5 %
    15:00Ясно и безоблачно+39°C25 %738 мм2.1 м/с5 %
    18:00Ясно и безоблачно+37°C26 %736 мм3.0 м/с5 %
    21:00Ясно и безоблачно+31°C42 %737 мм2.3 м/с5 %
  • 08февраля
    Среда
    +23°
    +37°
    Ясно и безоблачно
    ВремяПогодаТемператураВлажностьДавлениеВетер, м/сВероятность осадков
    00:00Ясно и безоблачно+29°C40 %737 мм4.1 м/с6 %
    03:00Ясно и безоблачно+26°C51 %737 мм3.5 м/с4 %
    06:00Ясно и безоблачно+23°C60 %737 мм2.2 м/с4 %
    09:00Ясно и безоблачно+29°C48 %738 мм2.6 м/с8 %
    12:00Ясно и безоблачно+35°C30 %738 мм2.8 м/с5 %
    15:00Ясно и безоблачно+37°C23 %736 мм1.8 м/с5 %
    18:00Ясно и безоблачно+35°C25 %735 мм2.2 м/с16 %
    21:00Ясно и безоблачно+29°C35 %735 мм2.0 м/с37 %
Мы используем cookies
Соглашаюсь